sensor_id;sensor_type;location;lat;lon;timestamp;temperature;humidity
22450;DHT22;11392;57.390;-2.468;2024-01-30T00:00:39;0.60;99.90
22450;DHT22;11392;57.390;-2.468;2024-01-30T00:03:06;0.70;99.90
22450;DHT22;11392;57.390;-2.468;2024-01-30T00:05:34;0.70;99.90
22450;DHT22;11392;57.390;-2.468;2024-01-30T00:08:01;0.70;99.90
22450;DHT22;11392;57.390;-2.468;2024-01-30T00:10:28;0.70;99.90
22450;DHT22;11392;57.390;-2.468;2024-01-30T00:12:55;0.70;99.90
22450;DHT22;11392;57.390;-2.468;2024-01-30T00:15:22;0.70;99.90
22450;DHT22;11392;57.390;-2.468;2024-01-30T00:17:49;0.70;99.90
22450;DHT22;11392;57.390;-2.468;2024-01-30T00:20:20;0.70;99.90
22450;DHT22;11392;57.390;-2.468;2024-01-30T00:22:48;0.70;99.90
22450;DHT22;11392;57.390;-2.468;2024-01-30T00:25:15;0.60;99.90
22450;DHT22;11392;57.390;-2.468;2024-01-30T00:27:42;0.70;99.90
22450;DHT22;11392;57.390;-2.468;2024-01-30T00:30:10;0.70;99.90
22450;DHT22;11392;57.390;-2.468;2024-01-30T00:32:37;0.70;99.90
22450;DHT22;11392;57.390;-2.468;2024-01-30T00:35:04;0.70;99.90
22450;DHT22;11392;57.390;-2.468;2024-01-30T00:37:31;0.70;99.90
22450;DHT22;11392;57.390;-2.468;2024-01-30T00:39:58;0.70;99.90
22450;DHT22;11392;57.390;-2.468;2024-01-30T00:42:26;0.70;99.90
22450;DHT22;11392;57.390;-2.468;2024-01-30T00:44:53;0.60;99.90
22450;DHT22;11392;57.390;-2.468;2024-01-30T00:47:19;0.50;99.90
22450;DHT22;11392;57.390;-2.468;2024-01-30T00:49:46;0.40;99.90
22450;DHT22;11392;57.390;-2.468;2024-01-30T00:52:13;0.30;99.90
22450;DHT22;11392;57.390;-2.468;2024-01-30T00:54:41;0.10;99.90
22450;DHT22;11392;57.390;-2.468;2024-01-30T00:57:08;0.10;99.90
22450;DHT22;11392;57.390;-2.468;2024-01-30T00:59:35;0.00;99.90
22450;DHT22;11392;57.390;-2.468;2024-01-30T01:02:04;-0.10;99.90
22450;DHT22;11392;57.390;-2.468;2024-01-30T01:04:31;-0.10;99.90
22450;DHT22;11392;57.390;-2.468;2024-01-30T01:06:58;-0.10;99.90
22450;DHT22;11392;57.390;-2.468;2024-01-30T01:09:25;-0.20;99.90
22450;DHT22;11392;57.390;-2.468;2024-01-30T01:11:53;-0.30;99.90
22450;DHT22;11392;57.390;-2.468;2024-01-30T01:14:20;-0.30;99.90
22450;DHT22;11392;57.390;-2.468;2024-01-30T01:16:47;-0.30;99.90
22450;DHT22;11392;57.390;-2.468;2024-01-30T01:19:14;-0.30;99.90
22450;DHT22;11392;57.390;-2.468;2024-01-30T01:21:41;-0.20;99.90
22450;DHT22;11392;57.390;-2.468;2024-01-30T01:24:08;-0.10;99.90
22450;DHT22;11392;57.390;-2.468;2024-01-30T01:26:35;0.00;99.90
22450;DHT22;11392;57.390;-2.468;2024-01-30T01:29:02;0.00;99.90
22450;DHT22;11392;57.390;-2.468;2024-01-30T01:31:37;0.10;99.90
22450;DHT22;11392;57.390;-2.468;2024-01-30T01:34:10;0.20;99.90
22450;DHT22;11392;57.390;-2.468;2024-01-30T01:36:39;0.30;99.90
22450;DHT22;11392;57.390;-2.468;2024-01-30T01:39:06;0.30;99.90
22450;DHT22;11392;57.390;-2.468;2024-01-30T01:41:33;0.30;99.90
22450;DHT22;11392;57.390;-2.468;2024-01-30T01:44:00;0.20;99.90
22450;DHT22;11392;57.390;-2.468;2024-01-30T01:46:30;0.20;99.90
22450;DHT22;11392;57.390;-2.468;2024-01-30T01:48:57;0.20;99.90
22450;DHT22;11392;57.390;-2.468;2024-01-30T01:51:27;0.10;99.90
22450;DHT22;11392;57.390;-2.468;2024-01-30T01:53:55;0.10;99.90
22450;DHT22;11392;57.390;-2.468;2024-01-30T01:56:23;0.20;99.90
22450;DHT22;11392;57.390;-2.468;2024-01-30T01:58:54;0.20;99.90
22450;DHT22;11392;57.390;-2.468;2024-01-30T02:01:23;0.00;99.90
22450;DHT22;11392;57.390;-2.468;2024-01-30T02:03:51;-0.10;99.90
22450;DHT22;11392;57.390;-2.468;2024-01-30T02:06:18;-0.10;99.90
22450;DHT22;11392;57.390;-2.468;2024-01-30T02:08:46;-0.10;99.90
22450;DHT22;11392;57.390;-2.468;2024-01-30T02:11:13;0.00;99.90
22450;DHT22;11392;57.390;-2.468;2024-01-30T02:13:41;0.10;99.90
22450;DHT22;11392;57.390;-2.468;2024-01-30T02:16:08;0.10;99.90
22450;DHT22;11392;57.390;-2.468;2024-01-30T02:18:35;0.10;99.90
22450;DHT22;11392;57.390;-2.468;2024-01-30T02:21:05;0.20;99.90
22450;DHT22;11392;57.390;-2.468;2024-01-30T02:23:33;0.20;99.90
22450;DHT22;11392;57.390;-2.468;2024-01-30T02:26:01;0.30;99.90
22450;DHT22;11392;57.390;-2.468;2024-01-30T02:28:28;0.20;99.90
22450;DHT22;11392;57.390;-2.468;2024-01-30T02:30:55;0.20;99.90
22450;DHT22;11392;57.390;-2.468;2024-01-30T02:33:22;0.20;99.90
22450;DHT22;11392;57.390;-2.468;2024-01-30T02:35:49;0.20;99.90
22450;DHT22;11392;57.390;-2.468;2024-01-30T02:38:16;0.20;99.90
22450;DHT22;11392;57.390;-2.468;2024-01-30T02:40:43;0.20;99.90
22450;DHT22;11392;57.390;-2.468;2024-01-30T02:43:10;0.10;99.90
22450;DHT22;11392;57.390;-2.468;2024-01-30T02:45:37;0.10;99.90
22450;DHT22;11392;57.390;-2.468;2024-01-30T02:48:04;0.20;99.90
22450;DHT22;11392;57.390;-2.468;2024-01-30T02:50:31;0.30;99.90
22450;DHT22;11392;57.390;-2.468;2024-01-30T02:52:58;0.40;99.90
22450;DHT22;11392;57.390;-2.468;2024-01-30T02:55:26;0.50;99.90
22450;DHT22;11392;57.390;-2.468;2024-01-30T02:57:53;0.50;99.90
22450;DHT22;11392;57.390;-2.468;2024-01-30T03:00:20;0.60;99.90
22450;DHT22;11392;57.390;-2.468;2024-01-30T03:02:47;0.50;99.90
22450;DHT22;11392;57.390;-2.468;2024-01-30T03:05:14;0.50;99.90
22450;DHT22;11392;57.390;-2.468;2024-01-30T03:07:41;0.40;99.90
22450;DHT22;11392;57.390;-2.468;2024-01-30T03:10:08;0.30;99.90
22450;DHT22;11392;57.390;-2.468;2024-01-30T03:12:35;0.30;99.90
22450;DHT22;11392;57.390;-2.468;2024-01-30T03:15:02;0.30;99.90
22450;DHT22;11392;57.390;-2.468;2024-01-30T03:17:30;0.20;99.90
22450;DHT22;11392;57.390;-2.468;2024-01-30T03:19:57;0.20;99.90
22450;DHT22;11392;57.390;-2.468;2024-01-30T03:22:24;0.30;99.90
22450;DHT22;11392;57.390;-2.468;2024-01-30T03:24:51;0.30;99.90
22450;DHT22;11392;57.390;-2.468;2024-01-30T03:27:18;0.40;99.90
22450;DHT22;11392;57.390;-2.468;2024-01-30T03:29:45;0.30;99.90
22450;DHT22;11392;57.390;-2.468;2024-01-30T03:32:12;0.40;99.90
22450;DHT22;11392;57.390;-2.468;2024-01-30T03:34:40;0.40;99.90
22450;DHT22;11392;57.390;-2.468;2024-01-30T03:37:07;0.40;99.90
22450;DHT22;11392;57.390;-2.468;2024-01-30T03:39:34;0.40;99.90
22450;DHT22;11392;57.390;-2.468;2024-01-30T03:42:01;0.40;99.90
22450;DHT22;11392;57.390;-2.468;2024-01-30T03:44:28;0.40;99.90
22450;DHT22;11392;57.390;-2.468;2024-01-30T03:46:56;0.40;99.90
22450;DHT22;11392;57.390;-2.468;2024-01-30T03:49:23;0.50;99.90
22450;DHT22;11392;57.390;-2.468;2024-01-30T03:51:50;0.40;99.90
22450;DHT22;11392;57.390;-2.468;2024-01-30T03:54:17;0.40;99.90
22450;DHT22;11392;57.390;-2.468;2024-01-30T03:56:44;0.40;99.90
22450;DHT22;11392;57.390;-2.468;2024-01-30T03:59:11;0.40;99.90
22450;DHT22;11392;57.390;-2.468;2024-01-30T04:01:38;0.30;99.90
22450;DHT22;11392;57.390;-2.468;2024-01-30T04:04:05;0.30;99.90
22450;DHT22;11392;57.390;-2.468;2024-01-30T04:06:32;0.20;99.90
22450;DHT22;11392;57.390;-2.468;2024-01-30T04:08:59;0.20;99.90
22450;DHT22;11392;57.390;-2.468;2024-01-30T04:11:27;0.10;99.90
22450;DHT22;11392;57.390;-2.468;2024-01-30T04:13:54;0.00;99.90
22450;DHT22;11392;57.390;-2.468;2024-01-30T04:16:21;-0.10;99.90
22450;DHT22;11392;57.390;-2.468;2024-01-30T04:18:49;-0.20;99.90
22450;DHT22;11392;57.390;-2.468;2024-01-30T04:21:16;-0.20;99.90
22450;DHT22;11392;57.390;-2.468;2024-01-30T04:23:44;-0.20;99.90
22450;DHT22;11392;57.390;-2.468;2024-01-30T04:26:11;-0.30;99.90
22450;DHT22;11392;57.390;-2.468;2024-01-30T04:28:38;-0.40;99.90
22450;DHT22;11392;57.390;-2.468;2024-01-30T04:31:05;-0.50;99.90
22450;DHT22;11392;57.390;-2.468;2024-01-30T04:33:32;-0.50;99.90
22450;DHT22;11392;57.390;-2.468;2024-01-30T04:35:59;-0.50;99.90
22450;DHT22;11392;57.390;-2.468;2024-01-30T04:38:26;-0.60;99.90
22450;DHT22;11392;57.390;-2.468;2024-01-30T04:40:53;-0.60;99.90
22450;DHT22;11392;57.390;-2.468;2024-01-30T04:43:20;-0.70;99.90
22450;DHT22;11392;57.390;-2.468;2024-01-30T04:45:48;-0.70;99.90
22450;DHT22;11392;57.390;-2.468;2024-01-30T04:48:15;-0.70;99.90
22450;DHT22;11392;57.390;-2.468;2024-01-30T04:50:42;-0.60;99.90
22450;DHT22;11392;57.390;-2.468;2024-01-30T04:53:09;-0.50;99.90
22450;DHT22;11392;57.390;-2.468;2024-01-30T04:55:36;-0.40;99.90
22450;DHT22;11392;57.390;-2.468;2024-01-30T04:58:03;-0.20;99.90
22450;DHT22;11392;57.390;-2.468;2024-01-30T05:00:31;-0.20;99.90
22450;DHT22;11392;57.390;-2.468;2024-01-30T05:02:58;-0.10;99.90
22450;DHT22;11392;57.390;-2.468;2024-01-30T05:05:25;0.00;99.90
22450;DHT22;11392;57.390;-2.468;2024-01-30T05:07:52;0.00;99.90
22450;DHT22;11392;57.390;-2.468;2024-01-30T05:10:19;0.00;99.90
22450;DHT22;11392;57.390;-2.468;2024-01-30T05:12:46;0.10;99.90
22450;DHT22;11392;57.390;-2.468;2024-01-30T05:15:13;0.20;99.90
22450;DHT22;11392;57.390;-2.468;2024-01-30T05:17:40;0.20;99.90
22450;DHT22;11392;57.390;-2.468;2024-01-30T05:20:07;0.30;99.90
22450;DHT22;11392;57.390;-2.468;2024-01-30T05:22:36;0.20;99.90
22450;DHT22;11392;57.390;-2.468;2024-01-30T05:25:04;0.20;99.90
22450;DHT22;11392;57.390;-2.468;2024-01-30T05:27:31;0.20;99.90
22450;DHT22;11392;57.390;-2.468;2024-01-30T05:29:58;0.10;99.90
22450;DHT22;11392;57.390;-2.468;2024-01-30T05:32:25;0.10;99.90
22450;DHT22;11392;57.390;-2.468;2024-01-30T05:34:53;0.00;99.90
22450;DHT22;11392;57.390;-2.468;2024-01-30T05:37:20;-0.10;99.90
22450;DHT22;11392;57.390;-2.468;2024-01-30T05:39:47;-0.10;99.90
22450;DHT22;11392;57.390;-2.468;2024-01-30T05:42:14;-0.10;99.90
22450;DHT22;11392;57.390;-2.468;2024-01-30T05:44:42;-0.10;99.90
22450;DHT22;11392;57.390;-2.468;2024-01-30T05:47:09;-0.20;99.90
22450;DHT22;11392;57.390;-2.468;2024-01-30T05:49:36;-0.30;99.90
22450;DHT22;11392;57.390;-2.468;2024-01-30T05:52:04;-0.30;99.90
22450;DHT22;11392;57.390;-2.468;2024-01-30T05:54:31;-0.40;99.90
22450;DHT22;11392;57.390;-2.468;2024-01-30T05:56:59;-0.50;99.90
22450;DHT22;11392;57.390;-2.468;2024-01-30T05:59:26;-0.50;99.90
22450;DHT22;11392;57.390;-2.468;2024-01-30T06:01:53;-0.50;99.90
22450;DHT22;11392;57.390;-2.468;2024-01-30T06:04:20;-0.60;99.90
22450;DHT22;11392;57.390;-2.468;2024-01-30T06:06:48;-0.60;99.90
22450;DHT22;11392;57.390;-2.468;2024-01-30T06:09:15;-0.80;99.90
22450;DHT22;11392;57.390;-2.468;2024-01-30T06:11:42;-0.80;99.90
22450;DHT22;11392;57.390;-2.468;2024-01-30T06:14:10;-0.90;99.90
22450;DHT22;11392;57.390;-2.468;2024-01-30T06:16:37;-0.90;99.90
22450;DHT22;11392;57.390;-2.468;2024-01-30T06:19:04;-0.90;99.90
22450;DHT22;11392;57.390;-2.468;2024-01-30T06:21:31;-0.90;99.90
22450;DHT22;11392;57.390;-2.468;2024-01-30T06:23:59;-0.90;99.90
22450;DHT22;11392;57.390;-2.468;2024-01-30T06:26:26;-0.90;99.90
22450;DHT22;11392;57.390;-2.468;2024-01-30T06:28:53;-1.00;99.90
22450;DHT22;11392;57.390;-2.468;2024-01-30T06:31:20;-0.90;99.90
22450;DHT22;11392;57.390;-2.468;2024-01-30T06:33:47;-1.00;99.90
22450;DHT22;11392;57.390;-2.468;2024-01-30T06:36:15;-0.90;99.90
22450;DHT22;11392;57.390;-2.468;2024-01-30T06:38:42;-1.00;99.90
22450;DHT22;11392;57.390;-2.468;2024-01-30T06:41:09;-1.00;99.90
22450;DHT22;11392;57.390;-2.468;2024-01-30T06:43:36;-1.00;99.90
22450;DHT22;11392;57.390;-2.468;2024-01-30T06:46:03;-0.90;99.90
22450;DHT22;11392;57.390;-2.468;2024-01-30T06:48:30;-0.90;99.90
22450;DHT22;11392;57.390;-2.468;2024-01-30T06:50:58;-1.00;99.90
22450;DHT22;11392;57.390;-2.468;2024-01-30T06:53:25;-1.00;99.90
22450;DHT22;11392;57.390;-2.468;2024-01-30T06:55:53;-1.10;99.90
22450;DHT22;11392;57.390;-2.468;2024-01-30T06:58:20;-1.20;99.90
22450;DHT22;11392;57.390;-2.468;2024-01-30T07:00:47;-1.30;99.90
22450;DHT22;11392;57.390;-2.468;2024-01-30T07:03:14;-1.30;99.90
22450;DHT22;11392;57.390;-2.468;2024-01-30T07:05:42;-1.30;99.90
22450;DHT22;11392;57.390;-2.468;2024-01-30T07:08:09;-1.30;99.90
22450;DHT22;11392;57.390;-2.468;2024-01-30T07:10:36;-1.20;99.90
22450;DHT22;11392;57.390;-2.468;2024-01-30T07:13:03;-1.20;99.90
22450;DHT22;11392;57.390;-2.468;2024-01-30T07:15:32;-1.20;99.90
22450;DHT22;11392;57.390;-2.468;2024-01-30T07:17:59;-1.30;99.90
22450;DHT22;11392;57.390;-2.468;2024-01-30T07:20:27;-1.40;99.90
22450;DHT22;11392;57.390;-2.468;2024-01-30T07:22:54;-1.40;99.90
22450;DHT22;11392;57.390;-2.468;2024-01-30T07:25:21;-1.40;99.90
22450;DHT22;11392;57.390;-2.468;2024-01-30T07:27:48;-1.30;99.90
22450;DHT22;11392;57.390;-2.468;2024-01-30T07:30:15;-1.30;99.90
22450;DHT22;11392;57.390;-2.468;2024-01-30T07:32:44;-1.30;99.90
22450;DHT22;11392;57.390;-2.468;2024-01-30T07:35:11;-1.30;99.90
22450;DHT22;11392;57.390;-2.468;2024-01-30T07:37:38;-1.40;99.90
22450;DHT22;11392;57.390;-2.468;2024-01-30T07:40:06;-1.30;99.90
22450;DHT22;11392;57.390;-2.468;2024-01-30T07:42:33;-1.30;99.90
22450;DHT22;11392;57.390;-2.468;2024-01-30T07:45:00;-1.30;99.90
22450;DHT22;11392;57.390;-2.468;2024-01-30T07:47:27;-1.20;99.90
22450;DHT22;11392;57.390;-2.468;2024-01-30T07:49:54;-1.20;99.90
22450;DHT22;11392;57.390;-2.468;2024-01-30T07:52:22;-1.20;99.90
22450;DHT22;11392;57.390;-2.468;2024-01-30T07:54:50;-1.10;99.90
22450;DHT22;11392;57.390;-2.468;2024-01-30T07:57:17;-1.10;99.90
22450;DHT22;11392;57.390;-2.468;2024-01-30T07:59:45;-1.10;99.90
22450;DHT22;11392;57.390;-2.468;2024-01-30T08:02:14;-1.10;99.90
22450;DHT22;11392;57.390;-2.468;2024-01-30T08:04:41;-1.10;99.90
22450;DHT22;11392;57.390;-2.468;2024-01-30T08:07:08;-1.10;99.90
22450;DHT22;11392;57.390;-2.468;2024-01-30T08:09:36;-1.00;99.90
22450;DHT22;11392;57.390;-2.468;2024-01-30T08:12:03;-1.10;99.90
22450;DHT22;11392;57.390;-2.468;2024-01-30T08:14:30;-1.00;99.90
22450;DHT22;11392;57.390;-2.468;2024-01-30T08:16:57;-1.10;99.90
22450;DHT22;11392;57.390;-2.468;2024-01-30T08:19:24;-1.00;99.90
22450;DHT22;11392;57.390;-2.468;2024-01-30T08:21:51;-1.10;99.90
22450;DHT22;11392;57.390;-2.468;2024-01-30T08:24:18;-1.00;99.90
22450;DHT22;11392;57.390;-2.468;2024-01-30T08:26:45;-1.00;99.90
22450;DHT22;11392;57.390;-2.468;2024-01-30T08:29:12;-1.00;99.90
22450;DHT22;11392;57.390;-2.468;2024-01-30T08:31:40;-0.90;99.90
22450;DHT22;11392;57.390;-2.468;2024-01-30T08:34:09;-0.90;99.90
22450;DHT22;11392;57.390;-2.468;2024-01-30T08:36:37;-0.90;99.90
22450;DHT22;11392;57.390;-2.468;2024-01-30T08:39:04;-0.80;99.90
22450;DHT22;11392;57.390;-2.468;2024-01-30T08:41:32;-0.70;99.90
22450;DHT22;11392;57.390;-2.468;2024-01-30T08:43:59;-0.30;99.90
22450;DHT22;11392;57.390;-2.468;2024-01-30T08:46:26;0.20;99.90
22450;DHT22;11392;57.390;-2.468;2024-01-30T08:48:53;0.40;99.90
22450;DHT22;11392;57.390;-2.468;2024-01-30T08:51:21;0.60;99.90
22450;DHT22;11392;57.390;-2.468;2024-01-30T08:53:48;0.80;99.90
22450;DHT22;11392;57.390;-2.468;2024-01-30T08:56:15;1.10;99.90
22450;DHT22;11392;57.390;-2.468;2024-01-30T08:58:43;1.40;99.90
22450;DHT22;11392;57.390;-2.468;2024-01-30T09:01:10;1.70;99.90
22450;DHT22;11392;57.390;-2.468;2024-01-30T09:03:37;1.80;99.90
22450;DHT22;11392;57.390;-2.468;2024-01-30T09:06:13;1.50;99.90
22450;DHT22;11392;57.390;-2.468;2024-01-30T09:08:40;1.50;99.90
22450;DHT22;11392;57.390;-2.468;2024-01-30T09:11:14;2.00;99.90
22450;DHT22;11392;57.390;-2.468;2024-01-30T09:13:41;2.50;99.90
22450;DHT22;11392;57.390;-2.468;2024-01-30T09:16:08;2.90;99.90
22450;DHT22;11392;57.390;-2.468;2024-01-30T09:18:35;3.50;99.90
22450;DHT22;11392;57.390;-2.468;2024-01-30T09:21:02;3.90;99.90
22450;DHT22;11392;57.390;-2.468;2024-01-30T09:23:29;4.30;99.90
22450;DHT22;11392;57.390;-2.468;2024-01-30T09:25:56;4.60;99.90
22450;DHT22;11392;57.390;-2.468;2024-01-30T09:28:23;4.80;99.90
22450;DHT22;11392;57.390;-2.468;2024-01-30T09:30:53;4.80;99.90
22450;DHT22;11392;57.390;-2.468;2024-01-30T09:33:20;5.10;99.90
22450;DHT22;11392;57.390;-2.468;2024-01-30T09:35:48;5.30;99.90
22450;DHT22;11392;57.390;-2.468;2024-01-30T09:38:15;5.50;99.90
22450;DHT22;11392;57.390;-2.468;2024-01-30T09:40:42;5.80;99.90
22450;DHT22;11392;57.390;-2.468;2024-01-30T09:43:11;6.10;99.90
22450;DHT22;11392;57.390;-2.468;2024-01-30T09:45:42;6.40;99.90
22450;DHT22;11392;57.390;-2.468;2024-01-30T09:48:11;6.40;99.90
22450;DHT22;11392;57.390;-2.468;2024-01-30T09:50:38;6.60;99.90
22450;DHT22;11392;57.390;-2.468;2024-01-30T09:53:08;6.90;99.90
22450;DHT22;11392;57.390;-2.468;2024-01-30T09:55:36;7.10;99.90
22450;DHT22;11392;57.390;-2.468;2024-01-30T09:58:03;7.20;99.90
22450;DHT22;11392;57.390;-2.468;2024-01-30T10:00:31;7.30;99.90
22450;DHT22;11392;57.390;-2.468;2024-01-30T10:02:58;7.20;99.90
22450;DHT22;11392;57.390;-2.468;2024-01-30T10:05:27;7.80;99.90
22450;DHT22;11392;57.390;-2.468;2024-01-30T10:07:57;7.90;99.90
22450;DHT22;11392;57.390;-2.468;2024-01-30T10:10:25;8.30;99.90
22450;DHT22;11392;57.390;-2.468;2024-01-30T10:12:53;8.60;99.90
22450;DHT22;11392;57.390;-2.468;2024-01-30T10:15:20;8.50;99.90
22450;DHT22;11392;57.390;-2.468;2024-01-30T10:17:47;8.20;99.90
22450;DHT22;11392;57.390;-2.468;2024-01-30T10:20:15;8.40;99.90
22450;DHT22;11392;57.390;-2.468;2024-01-30T10:22:42;8.30;99.90
22450;DHT22;11392;57.390;-2.468;2024-01-30T10:25:11;8.40;99.90
22450;DHT22;11392;57.390;-2.468;2024-01-30T10:27:39;8.90;99.90
22450;DHT22;11392;57.390;-2.468;2024-01-30T10:30:07;8.90;99.90
22450;DHT22;11392;57.390;-2.468;2024-01-30T10:32:35;8.90;99.90
22450;DHT22;11392;57.390;-2.468;2024-01-30T10:35:02;9.00;99.90
22450;DHT22;11392;57.390;-2.468;2024-01-30T10:37:30;9.10;99.90
22450;DHT22;11392;57.390;-2.468;2024-01-30T10:40:03;9.20;99.90
22450;DHT22;11392;57.390;-2.468;2024-01-30T10:42:36;9.30;99.90
22450;DHT22;11392;57.390;-2.468;2024-01-30T10:45:13;9.60;99.90
22450;DHT22;11392;57.390;-2.468;2024-01-30T10:47:43;9.70;99.90
22450;DHT22;11392;57.390;-2.468;2024-01-30T10:50:11;10.00;99.90
22450;DHT22;11392;57.390;-2.468;2024-01-30T10:52:39;10.30;99.90
22450;DHT22;11392;57.390;-2.468;2024-01-30T10:55:09;10.40;99.90
22450;DHT22;11392;57.390;-2.468;2024-01-30T10:57:37;10.50;99.90
22450;DHT22;11392;57.390;-2.468;2024-01-30T11:00:07;10.70;99.90
22450;DHT22;11392;57.390;-2.468;2024-01-30T11:02:47;10.90;99.90
22450;DHT22;11392;57.390;-2.468;2024-01-30T11:05:23;10.90;99.90
22450;DHT22;11392;57.390;-2.468;2024-01-30T11:07:56;11.10;99.90
22450;DHT22;11392;57.390;-2.468;2024-01-30T11:10:25;11.20;99.90
22450;DHT22;11392;57.390;-2.468;2024-01-30T11:12:52;11.30;99.90
22450;DHT22;11392;57.390;-2.468;2024-01-30T11:15:19;11.40;99.90
22450;DHT22;11392;57.390;-2.468;2024-01-30T11:20:25;12.10;99.90
22450;DHT22;11392;57.390;-2.468;2024-01-30T11:22:55;12.00;99.90
22450;DHT22;11392;57.390;-2.468;2024-01-30T11:25:25;12.20;99.90
22450;DHT22;11392;57.390;-2.468;2024-01-30T11:27:54;12.30;99.90
22450;DHT22;11392;57.390;-2.468;2024-01-30T11:30:26;12.80;99.90
22450;DHT22;11392;57.390;-2.468;2024-01-30T11:35:42;13.50;99.90
22450;DHT22;11392;57.390;-2.468;2024-01-30T11:38:14;13.80;99.90
22450;DHT22;11392;57.390;-2.468;2024-01-30T11:40:42;13.30;99.90
22450;DHT22;11392;57.390;-2.468;2024-01-30T11:43:10;13.50;99.90
22450;DHT22;11392;57.390;-2.468;2024-01-30T11:45:38;13.40;99.90
22450;DHT22;11392;57.390;-2.468;2024-01-30T11:48:06;13.60;99.90
22450;DHT22;11392;57.390;-2.468;2024-01-30T11:50:38;13.30;99.90
22450;DHT22;11392;57.390;-2.468;2024-01-30T11:53:06;13.30;99.90
22450;DHT22;11392;57.390;-2.468;2024-01-30T11:55:34;12.90;99.90
22450;DHT22;11392;57.390;-2.468;2024-01-30T11:58:03;12.80;99.90
22450;DHT22;11392;57.390;-2.468;2024-01-30T12:00:33;13.10;99.90
22450;DHT22;11392;57.390;-2.468;2024-01-30T12:03:02;13.90;99.90
22450;DHT22;11392;57.390;-2.468;2024-01-30T12:05:30;14.30;99.90
22450;DHT22;11392;57.390;-2.468;2024-01-30T12:07:58;14.50;99.90
22450;DHT22;11392;57.390;-2.468;2024-01-30T12:10:29;14.40;99.90
22450;DHT22;11392;57.390;-2.468;2024-01-30T12:12:57;14.20;99.90
22450;DHT22;11392;57.390;-2.468;2024-01-30T12:15:25;14.50;99.90
22450;DHT22;11392;57.390;-2.468;2024-01-30T12:18:03;14.30;99.90
22450;DHT22;11392;57.390;-2.468;2024-01-30T12:20:30;14.80;99.90
22450;DHT22;11392;57.390;-2.468;2024-01-30T12:22:57;15.10;99.90
22450;DHT22;11392;57.390;-2.468;2024-01-30T12:25:24;15.10;99.90
22450;DHT22;11392;57.390;-2.468;2024-01-30T12:27:52;15.00;99.90
22450;DHT22;11392;57.390;-2.468;2024-01-30T12:30:20;14.70;99.90
22450;DHT22;11392;57.390;-2.468;2024-01-30T12:32:52;14.30;99.90
22450;DHT22;11392;57.390;-2.468;2024-01-30T12:35:20;13.60;99.90
22450;DHT22;11392;57.390;-2.468;2024-01-30T12:37:49;13.10;99.90
22450;DHT22;11392;57.390;-2.468;2024-01-30T12:40:17;12.50;99.90
22450;DHT22;11392;57.390;-2.468;2024-01-30T12:42:49;12.50;99.90
22450;DHT22;11392;57.390;-2.468;2024-01-30T12:45:17;12.70;99.90
22450;DHT22;11392;57.390;-2.468;2024-01-30T12:47:49;12.60;99.90
22450;DHT22;11392;57.390;-2.468;2024-01-30T12:50:17;12.70;99.90
22450;DHT22;11392;57.390;-2.468;2024-01-30T12:52:45;13.30;99.90
22450;DHT22;11392;57.390;-2.468;2024-01-30T12:55:16;14.00;99.90
22450;DHT22;11392;57.390;-2.468;2024-01-30T12:57:44;14.60;99.90
22450;DHT22;11392;57.390;-2.468;2024-01-30T13:00:11;14.90;99.90
22450;DHT22;11392;57.390;-2.468;2024-01-30T13:02:38;14.90;99.90
22450;DHT22;11392;57.390;-2.468;2024-01-30T13:05:06;14.60;99.90
22450;DHT22;11392;57.390;-2.468;2024-01-30T13:07:34;14.90;99.90
22450;DHT22;11392;57.390;-2.468;2024-01-30T13:10:03;15.40;99.90
22450;DHT22;11392;57.390;-2.468;2024-01-30T13:12:31;15.30;99.90
22450;DHT22;11392;57.390;-2.468;2024-01-30T13:15:02;15.80;99.90
22450;DHT22;11392;57.390;-2.468;2024-01-30T13:17:31;16.20;99.90
22450;DHT22;11392;57.390;-2.468;2024-01-30T13:19:58;16.10;99.90
22450;DHT22;11392;57.390;-2.468;2024-01-30T13:22:37;16.10;99.90
22450;DHT22;11392;57.390;-2.468;2024-01-30T13:25:06;16.00;99.90
22450;DHT22;11392;57.390;-2.468;2024-01-30T13:27:35;16.30;99.90
22450;DHT22;11392;57.390;-2.468;2024-01-30T13:30:02;16.10;99.90
22450;DHT22;11392;57.390;-2.468;2024-01-30T13:32:29;15.80;99.90
22450;DHT22;11392;57.390;-2.468;2024-01-30T13:34:56;15.90;99.90
22450;DHT22;11392;57.390;-2.468;2024-01-30T13:37:23;16.20;99.90
22450;DHT22;11392;57.390;-2.468;2024-01-30T13:39:51;16.10;99.90
22450;DHT22;11392;57.390;-2.468;2024-01-30T13:42:18;15.90;99.90
22450;DHT22;11392;57.390;-2.468;2024-01-30T13:44:45;15.90;99.90
22450;DHT22;11392;57.390;-2.468;2024-01-30T13:47:12;16.20;99.90
22450;DHT22;11392;57.390;-2.468;2024-01-30T13:49:39;16.10;99.90
22450;DHT22;11392;57.390;-2.468;2024-01-30T13:52:07;15.80;99.90
22450;DHT22;11392;57.390;-2.468;2024-01-30T13:54:35;15.10;99.90
22450;DHT22;11392;57.390;-2.468;2024-01-30T13:57:02;14.70;99.90
22450;DHT22;11392;57.390;-2.468;2024-01-30T13:59:29;14.10;99.90
22450;DHT22;11392;57.390;-2.468;2024-01-30T14:01:56;13.80;99.90
22450;DHT22;11392;57.390;-2.468;2024-01-30T14:04:23;13.90;99.90
22450;DHT22;11392;57.390;-2.468;2024-01-30T14:06:51;13.90;99.90
22450;DHT22;11392;57.390;-2.468;2024-01-30T14:09:30;14.10;99.90
22450;DHT22;11392;57.390;-2.468;2024-01-30T14:11:59;13.80;99.90
22450;DHT22;11392;57.390;-2.468;2024-01-30T14:14:26;13.70;99.90
22450;DHT22;11392;57.390;-2.468;2024-01-30T14:16:53;13.80;99.90
22450;DHT22;11392;57.390;-2.468;2024-01-30T14:19:21;13.70;99.90
22450;DHT22;11392;57.390;-2.468;2024-01-30T14:21:49;13.60;99.90
22450;DHT22;11392;57.390;-2.468;2024-01-30T14:24:16;13.40;99.90
22450;DHT22;11392;57.390;-2.468;2024-01-30T14:26:43;13.60;99.90
22450;DHT22;11392;57.390;-2.468;2024-01-30T14:29:11;14.00;99.90
22450;DHT22;11392;57.390;-2.468;2024-01-30T14:31:38;14.30;99.90
22450;DHT22;11392;57.390;-2.468;2024-01-30T14:34:05;14.80;99.90
22450;DHT22;11392;57.390;-2.468;2024-01-30T14:36:32;14.60;99.90
22450;DHT22;11392;57.390;-2.468;2024-01-30T14:38:59;14.70;99.90
22450;DHT22;11392;57.390;-2.468;2024-01-30T14:41:26;14.50;99.90
22450;DHT22;11392;57.390;-2.468;2024-01-30T14:43:53;14.30;99.90
22450;DHT22;11392;57.390;-2.468;2024-01-30T14:46:20;13.80;99.90
22450;DHT22;11392;57.390;-2.468;2024-01-30T14:48:48;13.20;99.90
22450;DHT22;11392;57.390;-2.468;2024-01-30T14:51:15;13.00;99.90
22450;DHT22;11392;57.390;-2.468;2024-01-30T14:53:43;12.60;99.90
22450;DHT22;11392;57.390;-2.468;2024-01-30T14:56:10;12.60;99.90
22450;DHT22;11392;57.390;-2.468;2024-01-30T14:58:37;13.00;99.90
22450;DHT22;11392;57.390;-2.468;2024-01-30T15:01:05;13.50;99.90
22450;DHT22;11392;57.390;-2.468;2024-01-30T15:03:32;14.10;99.90
22450;DHT22;11392;57.390;-2.468;2024-01-30T15:05:59;13.60;99.90
22450;DHT22;11392;57.390;-2.468;2024-01-30T15:08:26;13.10;99.90
22450;DHT22;11392;57.390;-2.468;2024-01-30T15:10:53;13.10;99.90
22450;DHT22;11392;57.390;-2.468;2024-01-30T15:13:20;13.20;99.90
22450;DHT22;11392;57.390;-2.468;2024-01-30T15:15:48;13.40;99.90
22450;DHT22;11392;57.390;-2.468;2024-01-30T15:18:15;13.60;99.90
22450;DHT22;11392;57.390;-2.468;2024-01-30T15:20:42;13.60;99.90
22450;DHT22;11392;57.390;-2.468;2024-01-30T15:23:09;13.60;99.90
22450;DHT22;11392;57.390;-2.468;2024-01-30T15:25:36;13.80;99.90
22450;DHT22;11392;57.390;-2.468;2024-01-30T15:28:03;13.80;99.90
22450;DHT22;11392;57.390;-2.468;2024-01-30T15:30:30;13.50;99.90